Flight Track Log - Related Links

Times and Time Zones

All times are in EDT time to prevent confusion due to time zone crossing. See the ASQ5685 flight status page for this flight to view local times or setup timezone preferences in your user account.

Time Position Orientation Groundspeed Altitude Reporting Facility
EDT Latitude Longitude Course Direction KTS MPH feet Rate Location/Type
Mon 09:41:44 AM 33.6333 -84.3667 69° East 197 227 2,600  Level Atlanta TRACON
Mon 09:42:44 AM 33.6333 -84.2833 90° East 261 300 4,800 2,381 Climbing Atlanta TRACON
Mon 09:43:50 AM 33.6333 -84.1833 90° East 278 320 7,600 2,319 Climbing Atlanta TRACON
Mon 09:44:00 AM 33.9512 -84.0535 53° Northeast  Level Estimated
Mon 09:44:43 AM 33.6378 -84.1011 86° East 282 325 9,400  Level Atlanta Center
Mon 09:45:00 AM 33.9918 -83.9295 68° East  Level FlightAware Approximate
Mon 09:45:43 AM 33.6900 -84.0264 50° Northeast 277 319 11,300  Level Atlanta Center
Mon 09:46:00 AM 34.0323 -83.8053 68° East  Level FlightAware Approximate
Mon 09:46:43 AM 33.7483 -83.9514 47° Northeast 296 341 12,500  Level Atlanta Center
Mon 09:47:00 AM 34.0727 -83.6810 69° East  Level FlightAware Approximate
Mon 09:47:43 AM 33.8067 -83.8739 48° Northeast 315 362 13,400  Level Atlanta Center
Mon 09:49:43 AM 33.9419 -83.7008 47° Northeast 350 403 16,500 1,467 Climbing Atlanta Center
Mon 09:50:43 AM 34.0000 -83.6028 54° Northeast 350 403 17,800 1,050 Climbing Atlanta Center
Mon 09:51:43 AM 34.0622 -83.5047 53° Northeast 360 414 18,600 900 Climbing Atlanta Center
Mon 09:52:43 AM 34.1286 -83.4014 52° Northeast 377 434 19,600 1,050 Climbing Atlanta Center
Mon 09:53:43 AM 34.1906 -83.2953 55° Northeast 389 448 20,700 1,050 Climbing Atlanta Center
Mon 09:54:43 AM 34.2608 -83.1917 51° Northeast 394 453 21,700 1,000 Climbing Atlanta Center
Mon 09:55:43 AM 34.3311 -83.0728 54° Northeast 389 448 22,700 800 Climbing Atlanta Center
Mon 09:56:43 AM 34.3989 -82.9639 53° Northeast 394 453 23,300 550 Climbing Atlanta Center
Mon 09:57:43 AM 34.4647 -82.8497 55° Northeast 399 459 23,800 500 Climbing Atlanta Center
Mon 09:58:43 AM 34.5386 -82.7400 51° Northeast 410 472 24,300 500 Climbing Atlanta Center
Mon 09:59:43 AM 34.6083 -82.6231 54° Northeast 418 481 24,800 500 Climbing Atlanta Center
Mon 10:00:43 AM 34.6739 -82.5233 51° Northeast 418 481 25,300 500 Climbing Atlanta Center
Mon 10:01:43 AM 34.7456 -82.4008 55° Northeast 418 481 25,800 500 Climbing Atlanta Center
Mon 10:02:43 AM 34.8169 -82.2828 54° Northeast 423 487 26,300 500 Climbing Atlanta Center
Mon 10:03:43 AM 34.8922 -82.1647 52° Northeast 429 494 26,800 500 Climbing Atlanta Center
Mon 10:04:43 AM 34.9656 -82.0467 53° Northeast 436 502 27,300 500 Climbing Atlanta Center
Mon 10:05:43 AM 35.0367 -81.9283 54° Northeast 442 509 27,800 500 Climbing Atlanta Center
Mon 10:06:43 AM 35.1031 -81.7969 58° Northeast 442 509 28,300 550 Climbing Atlanta Center
Mon 10:07:43 AM 35.1758 -81.6606 57° Northeast 436 502 28,900 350 Climbing Atlanta Center
Mon 10:08:43 AM 35.2419 -81.5339 57° Northeast 441 507 29,000 50 Climbing Atlanta Center
Mon 10:09:43 AM 35.3103 -81.4044 57° Northeast 446 513 29,000  Level Atlanta Center
Mon 10:10:43 AM 35.3764 -81.2750 58° Northeast 446 513 29,000  Level Atlanta Center
Mon 10:11:43 AM 35.4461 -81.1403 58° Northeast 452 520 29,000  Level Atlanta Center
Mon 10:12:43 AM 35.5181 -81.0025 57° Northeast 470 541 29,000  Level Atlanta Center
Mon 10:13:43 AM 35.5875 -80.8697 57° Northeast 470 541 29,000  Level Atlanta Center
Mon 10:14:43 AM 35.6572 -80.7367 57° Northeast 465 535 29,000  Level Atlanta Center
Mon 10:15:43 AM 35.7264 -80.6008 58° Northeast 465 535 29,000  Level Atlanta Center
Mon 10:16:43 AM 35.7978 -80.4672 57° Northeast 465 535 29,000  Level Atlanta Center
Mon 10:19:00 AM 35.9431 -80.1717 59° Northeast 475 547 29,000  Level Washington Center
Mon 10:19:58 AM 36.0128 -80.0447 56° Northeast 460 529 29,000  Level Washington Center
Mon 10:20:58 AM 36.0864 -79.9100 56° Northeast 460 529 29,000  Level Washington Center
Mon 10:22:00 AM 36.1667 -79.7653 55° Northeast 460 529 29,000  Level Washington Center
Mon 10:23:00 AM 36.2356 -79.6428 55° Northeast 468 539 29,000  Level Washington Center
Mon 10:23:58 AM 36.3156 -79.5025 55° Northeast 468 539 29,000  Level Washington Center
Mon 10:24:59 AM 36.3886 -79.3719 55° Northeast 462 532 29,000 -347 Level Washington Center
Mon 10:25:59 AM 36.4617 -79.2361 56° Northeast 462 532 28,300 -843 Descending Washington Center
Mon 10:27:00 AM 36.5383 -79.1103 53° Northeast 462 532 27,300 -1,059 Descending Washington Center
Mon 10:27:58 AM 36.6108 -78.9817 55° Northeast 457 526 26,200 -1,119 Descending Washington Center
Mon 10:28:58 AM 36.6661 -78.8728 58° Northeast 433 498 25,100 -595 Descending Washington Center
Mon 10:29:59 AM 36.7383 -78.7436 55° Northeast 417 480 25,000 -149 Descending Washington Center
Mon 10:30:59 AM 36.7956 -78.6369 56° Northeast 406 467 24,800 -645 Descending Washington Center
Mon 10:32:00 AM 36.8697 -78.5050 55° Northeast 412 474 23,700 -1,059 Descending Washington Center
Mon 10:32:58 AM 36.9353 -78.3828 56° Northeast 412 474 22,700 -864 Descending Washington Center
Mon 10:33:58 AM 37.0006 -78.2575 57° Northeast 419 482 22,000 -347 Descending Washington Center
Mon 10:34:59 AM 37.0794 -78.1769 39° Northeast 403 464 22,000  Level Washington Center
Mon 10:35:59 AM 37.1728 -78.1044 32° Northeast 398 458 22,000  Level Washington Center
Mon 10:36:57 AM 37.2703 -78.0319 31° Northeast 398 458 22,000  Level Washington Center
Mon 10:37:58 AM 37.3658 -77.9542 33° Northeast 403 464 22,000  Level Washington Center
Mon 10:38:58 AM 37.4633 -77.8786 32° Northeast 403 464 22,000  Level Washington Center
Mon 10:40:00 AM 37.5625 -77.8108 28° Northeast 403 464 22,000 -500 Level Washington Center
Mon 10:40:58 AM 37.6658 -77.7483 26° Northeast 403 464 21,000 -1,831 Descending Washington Center
Mon 10:41:58 AM 37.7628 -77.6906 25° Northeast 391 450 18,400 -2,430 Descending Washington Center
Mon 10:42:59 AM 37.8575 -77.6381 24° Northeast 377 434 16,100 -2,361 Descending Washington Center
Mon 10:44:00 AM 37.9439 -77.5850 26° Northeast 360 414 13,600 -2,213 Descending Washington Center
Mon 10:45:01 AM 38.0408 -77.5297 24° Northeast 347 399 11,600 -1,831 Descending Washington Center
Mon 10:45:58 AM 38.1081 -77.4917 24° Northeast 325 374 10,000 -814 Descending Washington Center
Mon 10:46:59 AM 38.1797 -77.4486 25° Northeast 301 346 10,000 -50 Level Washington Center
Mon 10:47:57 AM 38.2514 -77.4056 25° Northeast 286 329 9,900 -706 Descending Washington Center
Mon 10:48:58 AM 38.3250 -77.3622 25° Northeast 279 321 8,600 -1,230 Descending Washington Center
Mon 10:49:59 AM 38.4042 -77.3589 North 274 315 7,400 -1,180 Descending Washington Center
Mon 10:51:00 AM 38.4792 -77.3606 359° North 274 315 6,200 -1,160 Descending Washington Center
Mon 10:51:58 AM 38.5500 -77.3622 359° North 268 308 5,100 -661 Descending Washington Center
Mon 10:52:58 AM 38.6231 -77.3667 357° North 268 308 4,900 -541 Descending Washington Center
Mon 10:54:00 AM 38.7167 -77.3667 360° North 265 305 4,000 -439 Descending Potomac TRACON
Mon 10:55:01 AM 38.7833 -77.3500 11° North 264 304 4,000  Level Potomac TRACON
Mon 10:56:01 AM 38.8500 -77.3500 360° North 255 293 4,000  Level Potomac TRACON
Mon 10:57:01 AM 38.9333 -77.3500 360° North 256 295 4,000 -298 Level Potomac TRACON
Mon 10:58:02 AM 39.0000 -77.3500 360° North 255 293 3,400 -492 Descending Potomac TRACON
Mon 10:59:03 AM 39.0667 -77.3500 360° North 228 262 3,000 -700 Descending Potomac TRACON
Mon 11:00:02 AM 39.0833 -77.4000 293° West 218 251 2,000 -526 Descending Potomac TRACON
Mon 11:00:57 AM 39.0333 -77.4333 207° Southwest 178 205 2,000 -417 Level Potomac TRACON
Mon 11:01:57 AM 39.0000 -77.4333 180° South 148 170 1,200 -800 Descending Potomac TRACON

Login

Don't have an account? Register now (free) for customized features, flight alerts, and more!